WCOM7: Spring River, Waco, MO

                                SHEF ID:       WCOM7     Spring R A - Waco MO
STATION TYPE: Stream Gauge
Regulating: Stage = 19.00, Flow = 17743

PRECIP STAGE RIV-FLOW BAT-LOAD
in ft cfs volt
Ccp-Rev Ccp-Rev Ccp-Rev Ccp-Rev
(America/Chicago)
05/07 00:00 0.00 2.69 735 12.14
05/07 01:00 0.00 2.67 724 12.12
05/07 02:00 0.00 2.67 724 12.09
05/07 03:00 0.00 2.69 735 12.10
05/07 04:00 0.00 2.67 724 12.09
05/07 05:00 0.00 2.65 713 12.07
05/07 06:00 0.00 2.67 724 12.04
05/07 07:00 0.00 2.65 713 12.04
05/07 08:00 0.00 2.66 718 12.10
05/07 09:00 0.00 2.66 718 12.19
05/07 10:00 0.00 2.67 724 12.33
05/07 11:00 0.00 2.62 697 13.21
05/07 12:00 0.00 2.64 708 13.03
05/07 13:00 0.00 2.63 702 12.71
05/07 14:00 0.00 2.65 713 13.08
05/07 15:00 ---- ---- ---- ----
05/07 16:00 ---- 2.65 713 12.58
05/07 17:00 0.00 2.55 660 12.54
05/07 18:00 0.00 2.60 686 12.48
05/07 19:00 0.00 2.61 692 12.48
05/07 20:00 0.00 2.60 686 12.40
05/07 21:00 0.00 2.59 681 12.24
05/07 22:00 0.00 2.57 670 12.13
05/07 23:00 ---- ---- ---- ----
Data processed at Fri 08May2026 03:37 GMT

NOTICE: If you are parsing this page

Please convert to using our Data API. Starting early 2026 we will be migrating to: https://water.usace.army.mil with modern pages rendered in JavaScript. When this migration completes you will no longer be able to scrape this page! CWMSDataAPI (CDA)

Timeseries IDs (TSIDs)

TSIDs used from left to right in the data table
WACO.Precip-Inc.Total.1Hour.1Hour.Ccp-Rev
WACO.Stage.Inst.1Hour.0.Ccp-Rev
WACO.Flow.Inst.1Hour.0.Ccp-Rev
WACO.Volt-Battery Load.Inst.1Hour.0.Ccp-Rev

                            

All information presented herein is the property of the government of the United States of America and may be revised or deleted at any time without prior notice. Dissemination of this information without the expressed written consent of the Public Affairs Office, Tulsa District U.S. Army Corps of Engineers is strictly prohibited. These data are gathered electronically and, as presented, have NOT undergone any form of quality control. These data are NOT guaranteed to be valid or correct.